sensor_id;sensor_type;location;lat;lon;timestamp;pressure;altitude;pressure_sealevel;temperature;humidity
20156;BME280;10238;49.556;10.956;2022-07-18T00:00:15;99062.25;;;14.61;68.66
20156;BME280;10238;49.556;10.956;2022-07-18T00:02:44;99057.56;;;14.55;68.26
20156;BME280;10238;49.556;10.956;2022-07-18T00:05:13;99051.03;;;14.50;68.82
20156;BME280;10238;49.556;10.956;2022-07-18T00:07:42;99047.16;;;14.44;67.98
20156;BME280;10238;49.556;10.956;2022-07-18T00:10:14;99044.81;;;14.41;68.33
20156;BME280;10238;49.556;10.956;2022-07-18T00:12:43;99043.13;;;14.40;68.96
20156;BME280;10238;49.556;10.956;2022-07-18T00:15:14;99047.81;;;14.38;68.58
20156;BME280;10238;49.556;10.956;2022-07-18T00:17:43;99041.78;;;14.36;67.93
20156;BME280;10238;49.556;10.956;2022-07-18T00:20:24;99044.59;;;14.35;69.34
20156;BME280;10238;49.556;10.956;2022-07-18T00:22:54;99046.94;;;14.30;68.83
20156;BME280;10238;49.556;10.956;2022-07-18T00:25:24;99050.09;;;14.25;70.50
20156;BME280;10238;49.556;10.956;2022-07-18T00:27:53;99061.94;;;14.23;70.34
20156;BME280;10238;49.556;10.956;2022-07-18T00:30:22;99063.06;;;14.20;70.28
20156;BME280;10238;49.556;10.956;2022-07-18T00:32:53;99064.22;;;14.18;70.28
20156;BME280;10238;49.556;10.956;2022-07-18T00:35:22;99072.41;;;14.16;70.08
20156;BME280;10238;49.556;10.956;2022-07-18T00:37:51;99077.91;;;14.15;69.98
20156;BME280;10238;49.556;10.956;2022-07-18T00:40:20;99078.25;;;14.12;70.25
20156;BME280;10238;49.556;10.956;2022-07-18T00:42:51;99069.69;;;14.08;69.91
20156;BME280;10238;49.556;10.956;2022-07-18T00:45:20;99064.16;;;14.02;71.07
20156;BME280;10238;49.556;10.956;2022-07-18T00:47:49;99070.97;;;13.96;72.50
20156;BME280;10238;49.556;10.956;2022-07-18T00:50:34;99073.59;;;13.88;72.27
20156;BME280;10238;49.556;10.956;2022-07-18T00:53:03;99065.19;;;13.83;72.78
20156;BME280;10238;49.556;10.956;2022-07-18T00:55:33;99064.16;;;13.76;73.57
20156;BME280;10238;49.556;10.956;2022-07-18T00:58:04;99073.47;;;13.72;72.96
20156;BME280;10238;49.556;10.956;2022-07-18T01:00:36;99068.59;;;13.68;74.06
20156;BME280;10238;49.556;10.956;2022-07-18T01:03:23;99063.72;;;13.63;74.61
20156;BME280;10238;49.556;10.956;2022-07-18T01:05:52;99059.00;;;13.57;75.80
20156;BME280;10238;49.556;10.956;2022-07-18T01:08:21;99064.66;;;13.54;76.92
20156;BME280;10238;49.556;10.956;2022-07-18T01:10:50;99055.44;;;13.49;77.03
20156;BME280;10238;49.556;10.956;2022-07-18T01:13:22;99050.56;;;13.44;76.79
20156;BME280;10238;49.556;10.956;2022-07-18T01:15:52;99063.25;;;13.42;76.79
20156;BME280;10238;49.556;10.956;2022-07-18T01:18:21;99061.72;;;13.40;77.74
20156;BME280;10238;49.556;10.956;2022-07-18T01:21:07;99069.88;;;13.38;77.29
20156;BME280;10238;49.556;10.956;2022-07-18T01:23:36;99069.88;;;13.38;77.61
20156;BME280;10238;49.556;10.956;2022-07-18T01:26:16;99061.50;;;13.33;78.08
20156;BME280;10238;49.556;10.956;2022-07-18T01:28:47;99058.47;;;13.28;79.16
20156;BME280;10238;49.556;10.956;2022-07-18T01:31:17;99058.09;;;13.23;79.49
20156;BME280;10238;49.556;10.956;2022-07-18T01:33:47;99058.56;;;13.19;81.24
20156;BME280;10238;49.556;10.956;2022-07-18T01:36:17;99062.66;;;13.13;80.59
20156;BME280;10238;49.556;10.956;2022-07-18T01:38:46;99061.28;;;13.09;78.86
20156;BME280;10238;49.556;10.956;2022-07-18T01:41:15;99061.44;;;13.07;78.83
20156;BME280;10238;49.556;10.956;2022-07-18T01:43:44;99065.97;;;13.07;80.67
20156;BME280;10238;49.556;10.956;2022-07-18T01:46:13;99062.91;;;13.02;79.38
20156;BME280;10238;49.556;10.956;2022-07-18T01:48:43;99059.53;;;13.00;80.69
20156;BME280;10238;49.556;10.956;2022-07-18T01:51:12;99067.16;;;12.95;80.42
20156;BME280;10238;49.556;10.956;2022-07-18T01:53:54;99069.13;;;12.93;83.00
20156;BME280;10238;49.556;10.956;2022-07-18T01:56:31;99072.09;;;12.90;83.39
20156;BME280;10238;49.556;10.956;2022-07-18T01:59:01;99071.72;;;12.85;85.19
20156;BME280;10238;49.556;10.956;2022-07-18T02:01:31;99070.63;;;12.78;84.33
20156;BME280;10238;49.556;10.956;2022-07-18T02:04:00;99070.09;;;12.74;85.74
20156;BME280;10238;49.556;10.956;2022-07-18T02:06:30;99068.88;;;12.69;85.90
20156;BME280;10238;49.556;10.956;2022-07-18T02:09:01;99068.34;;;12.65;84.30
20156;BME280;10238;49.556;10.956;2022-07-18T02:11:30;99069.47;;;12.63;86.87
20156;BME280;10238;49.556;10.956;2022-07-18T02:13:59;99072.44;;;12.60;86.31
20156;BME280;10238;49.556;10.956;2022-07-18T02:16:29;99074.41;;;12.58;85.37
20156;BME280;10238;49.556;10.956;2022-07-18T02:18:59;99069.53;;;12.53;86.39
20156;BME280;10238;49.556;10.956;2022-07-18T02:21:27;99065.50;;;12.49;87.23
20156;BME280;10238;49.556;10.956;2022-07-18T02:23:56;99074.78;;;12.45;87.61
20156;BME280;10238;49.556;10.956;2022-07-18T02:26:27;99078.72;;;12.41;87.65
20156;BME280;10238;49.556;10.956;2022-07-18T02:28:56;99076.38;;;12.38;89.50
20156;BME280;10238;49.556;10.956;2022-07-18T02:31:25;99082.16;;;12.34;88.67
20156;BME280;10238;49.556;10.956;2022-07-18T02:33:54;99074.28;;;12.32;88.16
20156;BME280;10238;49.556;10.956;2022-07-18T02:36:23;99079.91;;;12.29;91.27
20156;BME280;10238;49.556;10.956;2022-07-18T02:38:54;99080.22;;;12.26;91.91
20156;BME280;10238;49.556;10.956;2022-07-18T02:41:23;99089.47;;;12.22;91.36
20156;BME280;10238;49.556;10.956;2022-07-18T02:43:58;99078.28;;;12.19;91.06
20156;BME280;10238;49.556;10.956;2022-07-18T02:46:28;99080.25;;;12.17;92.98
20156;BME280;10238;49.556;10.956;2022-07-18T02:48:57;99074.38;;;12.13;94.37
20156;BME280;10238;49.556;10.956;2022-07-18T02:51:50;99079.44;;;12.07;93.47
20156;BME280;10238;49.556;10.956;2022-07-18T02:54:20;99083.25;;;12.04;95.94
20156;BME280;10238;49.556;10.956;2022-07-18T02:56:50;99082.84;;;11.99;96.69
20156;BME280;10238;49.556;10.956;2022-07-18T02:59:20;99077.94;;;11.95;97.90
20156;BME280;10238;49.556;10.956;2022-07-18T03:01:51;99086.38;;;11.90;97.40
20156;BME280;10238;49.556;10.956;2022-07-18T03:04:20;99080.50;;;11.87;97.42
20156;BME280;10238;49.556;10.956;2022-07-18T03:06:50;99086.13;;;11.84;95.91
20156;BME280;10238;49.556;10.956;2022-07-18T03:09:20;99086.41;;;11.81;95.09
20156;BME280;10238;49.556;10.956;2022-07-18T03:11:49;99089.34;;;11.78;97.17
20156;BME280;10238;49.556;10.956;2022-07-18T03:14:19;99091.31;;;11.76;99.31
20156;BME280;10238;49.556;10.956;2022-07-18T03:16:49;99086.56;;;11.70;97.32
20156;BME280;10238;49.556;10.956;2022-07-18T03:19:18;99087.69;;;11.67;96.62
20156;BME280;10238;49.556;10.956;2022-07-18T03:21:47;99081.84;;;11.64;98.32
20156;BME280;10238;49.556;10.956;2022-07-18T03:24:16;99082.09;;;11.61;98.27
20156;BME280;10238;49.556;10.956;2022-07-18T03:26:45;99083.34;;;11.57;98.53
20156;BME280;10238;49.556;10.956;2022-07-18T03:29:14;99078.44;;;11.52;98.53
20156;BME280;10238;49.556;10.956;2022-07-18T03:31:47;99083.22;;;11.49;99.71
20156;BME280;10238;49.556;10.956;2022-07-18T03:34:16;99077.19;;;11.47;99.59
20156;BME280;10238;49.556;10.956;2022-07-18T03:36:45;99074.00;;;11.43;98.73
20156;BME280;10238;49.556;10.956;2022-07-18T03:39:14;99081.28;;;11.41;99.50
20156;BME280;10238;49.556;10.956;2022-07-18T03:41:43;99078.75;;;11.40;99.76
20156;BME280;10238;49.556;10.956;2022-07-18T03:44:12;99078.03;;;11.38;100.00
20156;BME280;10238;49.556;10.956;2022-07-18T03:46:41;99077.34;;;11.36;100.00
20156;BME280;10238;49.556;10.956;2022-07-18T03:49:15;99079.31;;;11.34;100.00
20156;BME280;10238;49.556;10.956;2022-07-18T03:51:44;99083.09;;;11.31;100.00
20156;BME280;10238;49.556;10.956;2022-07-18T03:54:13;99093.63;;;11.33;100.00
20156;BME280;10238;49.556;10.956;2022-07-18T03:56:42;99091.94;;;11.32;100.00
20156;BME280;10238;49.556;10.956;2022-07-18T03:59:12;99087.56;;;11.31;99.16
20156;BME280;10238;49.556;10.956;2022-07-18T04:01:40;99089.97;;;11.34;99.77
20156;BME280;10238;49.556;10.956;2022-07-18T04:04:09;99086.31;;;11.35;100.00
20156;BME280;10238;49.556;10.956;2022-07-18T04:06:40;99079.31;;;11.34;100.00
20156;BME280;10238;49.556;10.956;2022-07-18T04:09:09;99084.63;;;11.34;100.00
20156;BME280;10238;49.556;10.956;2022-07-18T04:11:38;99076.78;;;11.32;100.00
20156;BME280;10238;49.556;10.956;2022-07-18T04:14:07;99070.66;;;11.32;100.00
20156;BME280;10238;49.556;10.956;2022-07-18T04:16:36;99080.44;;;11.31;100.00
20156;BME280;10238;49.556;10.956;2022-07-18T04:19:05;99077.94;;;11.30;100.00
20156;BME280;10238;49.556;10.956;2022-07-18T04:21:34;99082.41;;;11.29;100.00
20156;BME280;10238;49.556;10.956;2022-07-18T04:24:05;99085.78;;;11.31;100.00
20156;BME280;10238;49.556;10.956;2022-07-18T04:26:34;99091.94;;;11.32;100.00
20156;BME280;10238;49.556;10.956;2022-07-18T04:29:03;99094.28;;;11.35;100.00
20156;BME280;10238;49.556;10.956;2022-07-18T04:31:32;99089.97;;;11.34;100.00
20156;BME280;10238;49.556;10.956;2022-07-18T04:34:04;99085.34;;;11.36;100.00
20156;BME280;10238;49.556;10.956;2022-07-18T04:36:32;99084.91;;;11.40;100.00
20156;BME280;10238;49.556;10.956;2022-07-18T04:39:03;99085.47;;;11.44;100.00
20156;BME280;10238;49.556;10.956;2022-07-18T04:41:32;99079.84;;;11.47;100.00
20156;BME280;10238;49.556;10.956;2022-07-18T04:44:02;99084.06;;;11.49;100.00
20156;BME280;10238;49.556;10.956;2022-07-18T04:46:34;99080.28;;;11.52;100.00
20156;BME280;10238;49.556;10.956;2022-07-18T04:49:03;99085.19;;;11.56;100.00
20156;BME280;10238;49.556;10.956;2022-07-18T04:51:32;99080.38;;;11.60;100.00
20156;BME280;10238;49.556;10.956;2022-07-18T04:54:01;99085.47;;;11.63;99.46
20156;BME280;10238;49.556;10.956;2022-07-18T04:56:31;99089.22;;;11.70;100.00
20156;BME280;10238;49.556;10.956;2022-07-18T04:59:01;99092.72;;;11.80;100.00
20156;BME280;10238;49.556;10.956;2022-07-18T05:01:29;99091.03;;;11.88;100.00
20156;BME280;10238;49.556;10.956;2022-07-18T05:03:59;99093.78;;;11.96;100.00
20156;BME280;10238;49.556;10.956;2022-07-18T05:06:28;99096.88;;;12.01;100.00
20156;BME280;10238;49.556;10.956;2022-07-18T05:08:58;99093.19;;;12.12;100.00
20156;BME280;10238;49.556;10.956;2022-07-18T05:11:27;99094.28;;;12.19;100.00
20156;BME280;10238;49.556;10.956;2022-07-18T05:13:57;99099.97;;;12.24;100.00
20156;BME280;10238;49.556;10.956;2022-07-18T05:16:33;99094.47;;;12.35;100.00
20156;BME280;10238;49.556;10.956;2022-07-18T05:19:03;99096.41;;;12.42;100.00
20156;BME280;10238;49.556;10.956;2022-07-18T05:21:32;99094.97;;;12.48;100.00
20156;BME280;10238;49.556;10.956;2022-07-18T05:24:01;99089.75;;;12.56;100.00
20156;BME280;10238;49.556;10.956;2022-07-18T05:26:30;99089.81;;;12.64;100.00
20156;BME280;10238;49.556;10.956;2022-07-18T05:29:04;99093.97;;;12.76;100.00
20156;BME280;10238;49.556;10.956;2022-07-18T05:31:33;99089.09;;;12.89;100.00
20156;BME280;10238;49.556;10.956;2022-07-18T05:34:02;99090.81;;;13.07;100.00
20156;BME280;10238;49.556;10.956;2022-07-18T05:36:31;99086.38;;;13.16;100.00
20156;BME280;10238;49.556;10.956;2022-07-18T05:39:01;99086.47;;;13.24;100.00
20156;BME280;10238;49.556;10.956;2022-07-18T05:41:30;99097.28;;;13.40;100.00
20156;BME280;10238;49.556;10.956;2022-07-18T05:44:02;99097.47;;;13.64;96.38
20156;BME280;10238;49.556;10.956;2022-07-18T05:46:32;99088.59;;;13.81;94.22
20156;BME280;10238;49.556;10.956;2022-07-18T05:49:01;99085.22;;;14.05;88.22
20156;BME280;10238;49.556;10.956;2022-07-18T05:51:31;99092.56;;;14.28;88.12
20156;BME280;10238;49.556;10.956;2022-07-18T05:54:02;99094.25;;;14.37;87.40
20156;BME280;10238;49.556;10.956;2022-07-18T05:56:31;99089.81;;;14.46;85.24
20156;BME280;10238;49.556;10.956;2022-07-18T05:59:00;99092.00;;;14.58;85.65
20156;BME280;10238;49.556;10.956;2022-07-18T06:01:31;99088.22;;;14.77;84.36
20156;BME280;10238;49.556;10.956;2022-07-18T06:04:00;99093.81;;;14.99;81.80
20156;BME280;10238;49.556;10.956;2022-07-18T06:06:29;99095.34;;;15.26;79.51
20156;BME280;10238;49.556;10.956;2022-07-18T06:09:06;99086.19;;;15.45;78.88
20156;BME280;10238;49.556;10.956;2022-07-18T06:11:36;99080.31;;;15.65;76.94
20156;BME280;10238;49.556;10.956;2022-07-18T06:14:05;99089.84;;;15.92;75.37
20156;BME280;10238;49.556;10.956;2022-07-18T06:16:38;99089.75;;;16.16;72.70
20156;BME280;10238;49.556;10.956;2022-07-18T06:19:13;99082.66;;;16.39;71.45
20156;BME280;10238;49.556;10.956;2022-07-18T06:21:48;99077.72;;;16.66;71.18
20156;BME280;10238;49.556;10.956;2022-07-18T06:24:17;99088.47;;;16.89;71.67
20156;BME280;10238;49.556;10.956;2022-07-18T06:26:51;99074.25;;;17.11;69.38
20156;BME280;10238;49.556;10.956;2022-07-18T06:29:23;99074.72;;;17.37;68.72
20156;BME280;10238;49.556;10.956;2022-07-18T06:31:53;99072.53;;;17.63;67.24
20156;BME280;10238;49.556;10.956;2022-07-18T06:34:22;99065.69;;;17.90;66.31
20156;BME280;10238;49.556;10.956;2022-07-18T06:36:51;99065.94;;;18.17;65.09
20156;BME280;10238;49.556;10.956;2022-07-18T06:39:20;99053.84;;;18.42;63.62
20156;BME280;10238;49.556;10.956;2022-07-18T06:41:50;99054.84;;;18.70;60.88
20156;BME280;10238;49.556;10.956;2022-07-18T06:44:24;99056.84;;;18.97;59.57
20156;BME280;10238;49.556;10.956;2022-07-18T06:46:55;99060.84;;;19.22;59.45
20156;BME280;10238;49.556;10.956;2022-07-18T06:49:24;99060.91;;;19.50;60.52
20156;BME280;10238;49.556;10.956;2022-07-18T06:51:55;99056.63;;;19.83;nan
20156;BME280;10238;49.556;10.956;2022-07-18T06:54:30;99044.00;;;20.18;59.22
20156;BME280;10238;49.556;10.956;2022-07-18T06:57:01;99042.94;;;20.46;56.88
20156;BME280;10238;49.556;10.956;2022-07-18T06:59:35;99041.78;;;20.75;58.08
20156;BME280;10238;49.556;10.956;2022-07-18T07:02:06;99039.88;;;21.09;55.70
20156;BME280;10238;49.556;10.956;2022-07-18T07:04:35;99044.06;;;21.38;55.53
20156;BME280;10238;49.556;10.956;2022-07-18T07:07:05;99037.84;;;21.57;50.46
20156;BME280;10238;49.556;10.956;2022-07-18T07:09:33;99040.34;;;21.72;52.23
20156;BME280;10238;49.556;10.956;2022-07-18T07:12:03;99046.56;;;22.11;52.49
20156;BME280;10238;49.556;10.956;2022-07-18T07:14:32;99039.44;;;22.43;52.20
20156;BME280;10238;49.556;10.956;2022-07-18T07:17:01;99045.38;;;22.71;49.16
20156;BME280;10238;49.556;10.956;2022-07-18T07:19:32;99045.00;;;23.05;52.51
20156;BME280;10238;49.556;10.956;2022-07-18T07:22:05;99040.72;;;23.22;46.56
20156;BME280;10238;49.556;10.956;2022-07-18T07:24:34;99032.31;;;23.37;48.70
20156;BME280;10238;49.556;10.956;2022-07-18T07:27:04;99035.28;;;23.84;48.77
20156;BME280;10238;49.556;10.956;2022-07-18T07:29:33;99033.41;;;24.27;49.69
20156;BME280;10238;49.556;10.956;2022-07-18T07:32:03;99025.66;;;24.67;45.56
20156;BME280;10238;49.556;10.956;2022-07-18T07:34:34;99028.75;;;24.88;45.72
20156;BME280;10238;49.556;10.956;2022-07-18T07:37:02;99028.63;;;25.24;46.09
20156;BME280;10238;49.556;10.956;2022-07-18T07:39:31;99035.66;;;25.62;45.33
20156;BME280;10238;49.556;10.956;2022-07-18T07:42:00;99042.66;;;25.92;42.42
20156;BME280;10238;49.556;10.956;2022-07-18T07:44:55;99040.91;;;26.09;44.38
20156;BME280;10238;49.556;10.956;2022-07-18T07:47:25;99040.41;;;26.35;43.20
20156;BME280;10238;49.556;10.956;2022-07-18T07:49:59;99045.38;;;26.61;44.48
20156;BME280;10238;49.556;10.956;2022-07-18T07:52:28;99032.28;;;26.86;40.69
20156;BME280;10238;49.556;10.956;2022-07-18T07:54:57;99031.41;;;26.97;43.28
20156;BME280;10238;49.556;10.956;2022-07-18T07:57:27;99034.75;;;27.27;42.36
20156;BME280;10238;49.556;10.956;2022-07-18T08:00:05;99024.06;;;27.71;41.60
20156;BME280;10238;49.556;10.956;2022-07-18T08:02:35;99032.09;;;28.10;41.17
20156;BME280;10238;49.556;10.956;2022-07-18T08:05:06;99027.22;;;28.50;39.81
20156;BME280;10238;49.556;10.956;2022-07-18T08:07:35;99024.94;;;28.85;39.16
20156;BME280;10238;49.556;10.956;2022-07-18T08:10:09;99028.94;;;29.21;38.33
20156;BME280;10238;49.556;10.956;2022-07-18T08:12:39;99023.47;;;29.48;37.65
20156;BME280;10238;49.556;10.956;2022-07-18T08:15:09;99030.25;;;29.67;37.36
20156;BME280;10238;49.556;10.956;2022-07-18T08:17:38;99018.41;;;29.93;37.47
20156;BME280;10238;49.556;10.956;2022-07-18T08:20:15;99012.59;;;30.26;35.77
20156;BME280;10238;49.556;10.956;2022-07-18T08:22:55;99003.72;;;30.55;36.67
20156;BME280;10238;49.556;10.956;2022-07-18T08:25:26;98996.63;;;30.69;34.00
20156;BME280;10238;49.556;10.956;2022-07-18T08:27:56;98998.91;;;30.77;32.41
20156;BME280;10238;49.556;10.956;2022-07-18T08:30:26;99001.09;;;30.75;34.27
20156;BME280;10238;49.556;10.956;2022-07-18T08:32:56;98999.00;;;31.02;34.38
20156;BME280;10238;49.556;10.956;2022-07-18T08:35:28;98991.88;;;31.16;34.13
20156;BME280;10238;49.556;10.956;2022-07-18T08:37:58;98995.81;;;31.41;33.08
20156;BME280;10238;49.556;10.956;2022-07-18T08:40:27;99001.31;;;31.61;32.73
20156;BME280;10238;49.556;10.956;2022-07-18T08:42:57;98999.13;;;31.63;33.31
20156;BME280;10238;49.556;10.956;2022-07-18T08:46:04;98998.00;;;31.79;33.60
20156;BME280;10238;49.556;10.956;2022-07-18T08:48:33;98993.06;;;32.01;32.60
20156;BME280;10238;49.556;10.956;2022-07-18T08:51:04;98995.78;;;32.21;31.83
20156;BME280;10238;49.556;10.956;2022-07-18T08:53:36;99001.25;;;32.41;30.57
20156;BME280;10238;49.556;10.956;2022-07-18T08:56:06;98987.97;;;32.68;31.55
20156;BME280;10238;49.556;10.956;2022-07-18T08:58:35;98985.16;;;32.78;29.39
20156;BME280;10238;49.556;10.956;2022-07-18T09:01:15;98989.16;;;33.05;30.41
20156;BME280;10238;49.556;10.956;2022-07-18T09:03:44;98985.19;;;33.27;30.13
20156;BME280;10238;49.556;10.956;2022-07-18T09:06:45;98980.81;;;33.59;30.74
20156;BME280;10238;49.556;10.956;2022-07-18T09:09:16;98976.25;;;33.78;29.58
20156;BME280;10238;49.556;10.956;2022-07-18T09:11:51;98972.91;;;33.81;28.29
20156;BME280;10238;49.556;10.956;2022-07-18T09:14:37;98967.91;;;33.88;30.08
20156;BME280;10238;49.556;10.956;2022-07-18T09:17:09;98969.94;;;34.06;29.07
20156;BME280;10238;49.556;10.956;2022-07-18T09:19:41;98973.00;;;34.28;28.96
20156;BME280;10238;49.556;10.956;2022-07-18T09:22:14;98961.00;;;34.66;29.74
20156;BME280;10238;49.556;10.956;2022-07-18T09:24:59;98973.97;;;34.89;27.36
20156;BME280;10238;49.556;10.956;2022-07-18T09:27:32;98967.78;;;34.97;26.41
20156;BME280;10238;49.556;10.956;2022-07-18T09:30:13;98960.44;;;35.07;29.58
20156;BME280;10238;49.556;10.956;2022-07-18T09:32:46;98956.13;;;35.19;29.27
20156;BME280;10238;49.556;10.956;2022-07-18T09:35:18;98966.09;;;35.39;26.03
20156;BME280;10238;49.556;10.956;2022-07-18T09:37:58;98961.50;;;35.48;27.41
20156;BME280;10238;49.556;10.956;2022-07-18T09:40:29;98962.38;;;35.80;26.57
20156;BME280;10238;49.556;10.956;2022-07-18T09:43:01;98951.19;;;36.17;24.62
20156;BME280;10238;49.556;10.956;2022-07-18T09:45:32;98947.63;;;36.44;26.27
20156;BME280;10238;49.556;10.956;2022-07-18T09:48:04;98945.44;;;36.68;24.50
20156;BME280;10238;49.556;10.956;2022-07-18T09:50:36;98941.16;;;36.89;25.21
20156;BME280;10238;49.556;10.956;2022-07-18T09:53:12;98940.66;;;37.09;25.47
20156;BME280;10238;49.556;10.956;2022-07-18T09:56:01;98944.50;;;37.35;24.26
20156;BME280;10238;49.556;10.956;2022-07-18T09:58:32;98937.03;;;37.58;24.26
20156;BME280;10238;49.556;10.956;2022-07-18T10:01:03;98938.31;;;37.74;23.75
20156;BME280;10238;49.556;10.956;2022-07-18T10:03:35;98935.88;;;37.81;22.85
20156;BME280;10238;49.556;10.956;2022-07-18T10:06:04;98933.31;;;37.84;23.36
20156;BME280;10238;49.556;10.956;2022-07-18T10:08:38;98927.50;;;37.72;23.18
20156;BME280;10238;49.556;10.956;2022-07-18T10:11:07;98923.00;;;37.85;27.38
20156;BME280;10238;49.556;10.956;2022-07-18T10:13:38;98923.44;;;38.00;23.95
20156;BME280;10238;49.556;10.956;2022-07-18T10:16:08;98925.16;;;38.18;22.80
20156;BME280;10238;49.556;10.956;2022-07-18T10:18:37;98917.38;;;38.37;23.53
20156;BME280;10238;49.556;10.956;2022-07-18T10:21:09;98913.91;;;38.62;23.58
20156;BME280;10238;49.556;10.956;2022-07-18T10:23:42;98913.78;;;38.76;24.43
20156;BME280;10238;49.556;10.956;2022-07-18T10:26:19;98921.28;;;38.75;23.29
20156;BME280;10238;49.556;10.956;2022-07-18T10:29:08;98923.09;;;38.89;23.32
20156;BME280;10238;49.556;10.956;2022-07-18T10:31:39;98912.00;;;38.97;21.36
20156;BME280;10238;49.556;10.956;2022-07-18T10:34:12;98914.00;;;39.05;20.83
20156;BME280;10238;49.556;10.956;2022-07-18T10:37:06;98912.84;;;39.15;22.37
20156;BME280;10238;49.556;10.956;2022-07-18T10:39:37;98926.59;;;39.20;21.28
20156;BME280;10238;49.556;10.956;2022-07-18T10:42:20;98928.72;;;39.23;22.90
20156;BME280;10238;49.556;10.956;2022-07-18T10:44:52;98923.53;;;39.47;21.96
20156;BME280;10238;49.556;10.956;2022-07-18T10:47:23;98923.28;;;39.69;22.25
20156;BME280;10238;49.556;10.956;2022-07-18T10:50:07;98920.53;;;39.86;21.62
20156;BME280;10238;49.556;10.956;2022-07-18T10:52:58;98920.66;;;39.89;23.12
20156;BME280;10238;49.556;10.956;2022-07-18T10:55:32;98914.09;;;39.94;22.33
20156;BME280;10238;49.556;10.956;2022-07-18T10:58:19;98919.50;;;39.99;22.26
20156;BME280;10238;49.556;10.956;2022-07-18T11:00:53;98915.84;;;40.07;22.08
20156;BME280;10238;49.556;10.956;2022-07-18T11:03:36;98907.31;;;40.12;21.45
20156;BME280;10238;49.556;10.956;2022-07-18T11:06:05;98905.72;;;39.94;20.63
20156;BME280;10238;49.556;10.956;2022-07-18T11:08:35;98913.66;;;38.50;20.57
20156;BME280;10238;49.556;10.956;2022-07-18T11:11:14;98913.31;;;38.35;21.98
20156;BME280;10238;49.556;10.956;2022-07-18T11:13:44;98907.56;;;38.88;24.85
20156;BME280;10238;49.556;10.956;2022-07-18T11:16:21;98900.06;;;39.56;22.43
20156;BME280;10238;49.556;10.956;2022-07-18T11:19:15;98892.78;;;39.81;23.61
20156;BME280;10238;49.556;10.956;2022-07-18T11:21:57;98891.84;;;40.23;23.47
20156;BME280;10238;49.556;10.956;2022-07-18T11:24:27;98878.56;;;40.57;22.40
20156;BME280;10238;49.556;10.956;2022-07-18T11:27:05;98879.09;;;40.80;21.67
20156;BME280;10238;49.556;10.956;2022-07-18T11:29:41;98882.91;;;40.96;21.86
20156;BME280;10238;49.556;10.956;2022-07-18T11:32:10;98881.66;;;41.14;20.46
20156;BME280;10238;49.556;10.956;2022-07-18T11:34:49;98880.06;;;41.25;21.82
20156;BME280;10238;49.556;10.956;2022-07-18T11:37:36;98878.16;;;41.38;20.62
20156;BME280;10238;49.556;10.956;2022-07-18T11:40:15;98884.56;;;41.38;21.34
20156;BME280;10238;49.556;10.956;2022-07-18T11:42:52;98869.84;;;41.50;19.81
20156;BME280;10238;49.556;10.956;2022-07-18T11:45:35;98870.78;;;41.54;20.58
20156;BME280;10238;49.556;10.956;2022-07-18T11:48:39;98874.41;;;41.66;21.34
20156;BME280;10238;49.556;10.956;2022-07-18T11:51:12;98867.44;;;41.72;20.59
20156;BME280;10238;49.556;10.956;2022-07-18T11:54:31;98859.78;;;41.81;22.21
20156;BME280;10238;49.556;10.956;2022-07-18T11:57:13;98859.56;;;41.74;20.00
20156;BME280;10238;49.556;10.956;2022-07-18T12:00:16;98855.22;;;41.32;21.63
20156;BME280;10238;49.556;10.956;2022-07-18T12:03:08;98857.09;;;41.40;22.47
20156;BME280;10238;49.556;10.956;2022-07-18T12:05:50;98856.03;;;41.65;20.05
20156;BME280;10238;49.556;10.956;2022-07-18T12:08:34;98846.75;;;41.85;21.69
20156;BME280;10238;49.556;10.956;2022-07-18T12:11:14;98846.34;;;42.07;21.47
20156;BME280;10238;49.556;10.956;2022-07-18T12:13:49;98845.66;;;42.22;20.33
20156;BME280;10238;49.556;10.956;2022-07-18T12:19:09;98837.72;;;42.24;20.08
20156;BME280;10238;49.556;10.956;2022-07-18T12:21:51;98837.97;;;42.19;19.38
20156;BME280;10238;49.556;10.956;2022-07-18T12:24:29;98826.81;;;42.31;21.20
20156;BME280;10238;49.556;10.956;2022-07-18T12:27:33;98824.34;;;42.42;21.33
20156;BME280;10238;49.556;10.956;2022-07-18T12:30:10;98828.41;;;42.20;21.22
20156;BME280;10238;49.556;10.956;2022-07-18T12:32:59;98830.88;;;42.34;21.47
20156;BME280;10238;49.556;10.956;2022-07-18T12:36:00;98822.47;;;42.58;21.20
20156;BME280;10238;49.556;10.956;2022-07-18T12:38:32;98821.63;;;42.70;19.72
20156;BME280;10238;49.556;10.956;2022-07-18T12:41:01;98819.75;;;42.74;19.89
20156;BME280;10238;49.556;10.956;2022-07-18T12:43:33;98821.72;;;42.73;20.30
20156;BME280;10238;49.556;10.956;2022-07-18T12:46:20;98819.88;;;42.77;20.06
20156;BME280;10238;49.556;10.956;2022-07-18T12:48:51;98817.31;;;42.72;20.47
20156;BME280;10238;49.556;10.956;2022-07-18T12:51:31;98815.34;;;42.73;19.60
20156;BME280;10238;49.556;10.956;2022-07-18T12:54:10;98819.31;;;42.60;20.93
20156;BME280;10238;49.556;10.956;2022-07-18T12:56:39;98817.66;;;42.71;19.51
20156;BME280;10238;49.556;10.956;2022-07-18T12:59:08;98810.19;;;42.75;20.16
20156;BME280;10238;49.556;10.956;2022-07-18T13:01:37;98809.66;;;42.21;18.39
20156;BME280;10238;49.556;10.956;2022-07-18T13:04:08;98803.00;;;42.13;19.71
20156;BME280;10238;49.556;10.956;2022-07-18T13:06:38;98803.22;;;42.20;19.39
20156;BME280;10238;49.556;10.956;2022-07-18T13:09:10;98812.00;;;42.07;19.72
20156;BME280;10238;49.556;10.956;2022-07-18T13:11:39;98795.78;;;42.24;19.57
20156;BME280;10238;49.556;10.956;2022-07-18T13:14:11;98789.59;;;41.59;19.55
20156;BME280;10238;49.556;10.956;2022-07-18T13:16:40;98792.97;;;41.32;20.84
20156;BME280;10238;49.556;10.956;2022-07-18T13:19:13;98783.22;;;41.38;19.87